Time;durP1;ratioP1;P1;durP2;ratioP2;P2;SDS_P1;SDS_P2;PMS_P1;PMS_P2;Temp;Humidity;BMP_temperature;BMP_pressure;BME280_temperature;BME280_humidity;BME280_pressure;Samples;Min_cycle;Max_cycle;Signal;HPM_P1;HPM_P2
2024/01/05 00:02:25;;;;;;;7.97;1.80;;;;;;;;;;4998779;28;20463;-86
2024/01/05 00:05:12;;;;;;;8.07;2.73;;;;;;;;;;4984812;28;20490;-87
2024/01/05 00:07:52;;;;;;;9.70;2.97;;;;;;;;;;4996385;28;21230;-87
2024/01/05 00:10:27;;;;;;;11.10;1.97;;;;;;;;;;4978937;28;21602;-85
2024/01/05 00:13:36;;;;;;;7.87;2.13;;;;;;;;;;4951338;28;20503;-88
2024/01/05 00:16:28;;;;;;;14.40;3.20;;;;;;;;;;4988839;28;20475;-86
2024/01/05 00:19:24;;;;;;;7.27;2.17;;;;;;;;;;4989236;28;20462;-85
2024/01/05 00:21:57;;;;;;;6.83;2.10;;;;;;;;;;4974090;28;20460;-85
2024/01/05 00:24:54;;;;;;;5.37;2.50;;;;;;;;;;4988266;28;20491;-87
2024/01/05 00:30:54;;;;;;;7.00;2.03;;;;;;;;;;4992095;28;20520;-85
2024/01/05 00:33:30;;;;;;;8.63;3.00;;;;;;;;;;4970614;28;20515;-86
2024/01/05 00:36:23;;;;;;;8.00;2.43;;;;;;;;;;4996591;28;20596;-85
2024/01/05 00:38:56;;;;;;;8.10;2.10;;;;;;;;;;5016327;28;20493;-89
2024/01/05 00:41:49;;;;;;;;;;;;;;;;;;;;;
2024/01/05 00:44:43;;;;;;;5.83;1.70;;;;;;;;;;5036428;28;20837;-89
2024/01/05 00:47:57;;;;;;;5.10;2.20;;;;;;;;;;4997807;28;20512;-87
2024/01/05 00:51:02;;;;;;;7.40;1.70;;;;;;;;;;5024893;28;20445;-85
2024/01/05 00:54:00;;;;;;;10.10;2.70;;;;;;;;;;5010904;28;20465;-85
2024/01/05 00:59:35;;;;;;;4.93;1.93;;;;;;;;;;5035967;28;20573;-87
2024/01/05 01:02:19;;;;;;;4.80;1.40;;;;;;;;;;5018442;28;20450;-87
2024/01/05 01:05:07;;;;;;;4.97;2.03;;;;;;;;;;5019248;28;20477;-89
2024/01/05 01:07:51;;;;;;;6.17;2.80;;;;;;;;;;5042206;22;20500;-88
2024/01/05 01:10:41;;;;;;;4.10;1.60;;;;;;;;;;5019327;28;20713;-85
2024/01/05 01:13:34;;;;;;;3.53;1.70;;;;;;;;;;4963159;28;20436;-87
2024/01/05 01:16:14;;;;;;;4.97;1.80;;;;;;;;;;5020527;28;20469;-88
2024/01/05 01:19:24;;;;;;;3.30;1.60;;;;;;;;;;4981057;28;21622;-88
2024/01/05 01:21:57;;;;;;;5.33;2.10;;;;;;;;;;5000207;28;20573;-86
2024/01/05 01:24:33;;;;;;;6.23;1.50;;;;;;;;;;5004956;28;20488;-87
2024/01/05 01:27:14;;;;;;;3.67;1.50;;;;;;;;;;5020793;28;20496;-87
2024/01/05 01:33:08;;;;;;;4.27;1.90;;;;;;;;;;5027580;28;20446;-89
2024/01/05 01:35:41;;;;;;;7.93;1.97;;;;;;;;;;5027685;28;20514;-88
2024/01/05 01:38:08;;;;;;;9.43;2.30;;;;;;;;;;5034700;28;20922;-87
2024/01/05 01:40:48;;;;;;;7.43;1.73;;;;;;;;;;5035499;28;20442;-87
2024/01/05 01:43:41;;;;;;;4.57;1.70;;;;;;;;;;5030382;28;20454;-86
2024/01/05 01:46:15;;;;;;;4.50;2.17;;;;;;;;;;5023861;28;20528;-84
2024/01/05 01:48:51;;;;;;;9.10;2.00;;;;;;;;;;5023637;28;20465;-87
2024/01/05 01:51:32;;;;;;;7.83;2.27;;;;;;;;;;5028151;28;20470;-85
2024/01/05 01:54:11;;;;;;;2.60;1.30;;;;;;;;;;5024161;28;21029;-85
2024/01/05 01:56:54;;;;;;;4.63;1.60;;;;;;;;;;5018851;28;20473;-86
2024/01/05 01:59:38;;;;;;;6.90;1.40;;;;;;;;;;5021951;28;20550;-87
2024/01/05 02:02:14;;;;;;;6.60;1.90;;;;;;;;;;5022941;28;20495;-88
2024/01/05 02:04:55;;;;;;;3.27;1.67;;;;;;;;;;5019175;28;20484;-87
2024/01/05 02:07:26;;;;;;;4.60;2.50;;;;;;;;;;5027556;28;20484;-88
2024/01/05 02:09:58;;;;;;;9.50;2.30;;;;;;;;;;5020265;28;20516;-86
2024/01/05 02:12:54;;;;;;;4.20;1.67;;;;;;;;;;5026339;28;20446;-88
2024/01/05 02:15:34;;;;;;;5.80;1.97;;;;;;;;;;5006573;28;20464;-86
2024/01/05 02:18:24;;;;;;;7.00;2.10;;;;;;;;;;5021759;28;20592;-88
2024/01/05 02:21:04;;;;;;;3.57;1.67;;;;;;;;;;5015629;28;20984;-85
2024/01/05 02:23:37;;;;;;;5.47;2.00;;;;;;;;;;5026481;28;20441;-86
2024/01/05 02:26:09;;;;;;;10.73;2.90;;;;;;;;;;5027223;28;20557;-86
2024/01/05 02:28:42;;;;;;;4.53;1.83;;;;;;;;;;5015005;28;20472;-88
2024/01/05 02:31:11;;;;;;;1.90;1.07;;;;;;;;;;5013830;28;20515;-87
2024/01/05 02:33:53;;;;;;;10.03;1.93;;;;;;;;;;5019744;28;20465;-86
2024/01/05 02:36:24;;;;;;;2.37;1.83;;;;;;;;;;5024223;28;20476;-86
2024/01/05 02:38:58;;;;;;;6.20;1.90;;;;;;;;;;5019605;28;20486;-86
2024/01/05 02:41:40;;;;;;;9.30;2.33;;;;;;;;;;5004421;28;20498;-86
2024/01/05 02:44:13;;;;;;;11.00;2.27;;;;;;;;;;5017556;28;20452;-87
2024/01/05 02:46:46;;;;;;;3.57;1.73;;;;;;;;;;5011197;28;21962;-88
2024/01/05 02:49:17;;;;;;;3.70;2.17;;;;;;;;;;5018808;28;20532;-87
2024/01/05 02:51:53;;;;;;;4.57;1.77;;;;;;;;;;5012349;28;20499;-87
2024/01/05 02:54:36;;;;;;;5.80;1.57;;;;;;;;;;5020668;28;20457;-87
2024/01/05 02:57:05;;;;;;;5.63;1.60;;;;;;;;;;5030955;28;20469;-86
2024/01/05 02:59:42;;;;;;;4.77;2.00;;;;;;;;;;5008361;28;20485;-85
2024/01/05 03:02:22;;;;;;;3.27;1.90;;;;;;;;;;5012253;28;20452;-86
2024/01/05 03:04:55;;;;;;;3.90;1.60;;;;;;;;;;5027562;28;20529;-86
2024/01/05 03:07:55;;;;;;;6.23;1.93;;;;;;;;;;5030825;28;20474;-87
2024/01/05 03:10:26;;;;;;;7.13;1.80;;;;;;;;;;5037129;28;20445;-86
2024/01/05 03:13:04;;;;;;;6.03;1.60;;;;;;;;;;5033673;28;20492;-86
2024/01/05 03:15:45;;;;;;;5.83;2.00;;;;;;;;;;5029483;28;20484;-86
2024/01/05 03:18:33;;;;;;;6.20;2.30;;;;;;;;;;5024891;28;20594;-84
2024/01/05 03:21:19;;;;;;;3.67;1.63;;;;;;;;;;5028997;28;20463;-86
2024/01/05 03:23:50;;;;;;;4.93;1.60;;;;;;;;;;5022567;28;20454;-87
2024/01/05 03:26:24;;;;;;;5.30;1.57;;;;;;;;;;5022551;28;20484;-87
2024/01/05 03:28:51;;;;;;;3.77;1.47;;;;;;;;;;5012755;28;20485;-88
2024/01/05 03:31:19;;;;;;;4.37;1.87;;;;;;;;;;5025347;28;20553;-86
2024/01/05 03:33:47;;;;;;;5.73;1.77;;;;;;;;;;5017367;28;20463;-88
2024/01/05 03:36:22;;;;;;;7.07;1.63;;;;;;;;;;5020224;28;20543;-89
2024/01/05 03:38:49;;;;;;;3.47;1.40;;;;;;;;;;5022334;28;20483;-87
2024/01/05 03:41:26;;;;;;;3.60;1.40;;;;;;;;;;5018213;28;20862;-88
2024/01/05 03:43:54;;;;;;;5.30;1.90;;;;;;;;;;5018923;28;20452;-89
2024/01/05 03:46:21;;;;;;;10.43;2.83;;;;;;;;;;5021846;28;20598;-85
2024/01/05 03:48:54;;;;;;;4.47;1.73;;;;;;;;;;5019472;28;20489;-87
2024/01/05 03:51:24;;;;;;;8.63;2.80;;;;;;;;;;5023190;28;20860;-87
2024/01/05 03:53:54;;;;;;;4.70;1.60;;;;;;;;;;5018780;28;20453;-87
2024/01/05 03:56:23;;;;;;;1.93;1.50;;;;;;;;;;5021212;28;20484;-85
2024/01/05 03:58:53;;;;;;;4.50;1.73;;;;;;;;;;5018770;28;20560;-87
2024/01/05 04:01:26;;;;;;;4.83;1.63;;;;;;;;;;5023698;28;20498;-85
2024/01/05 04:03:54;;;;;;;2.53;1.33;;;;;;;;;;5007462;28;20457;-86
2024/01/05 04:06:27;;;;;;;8.40;2.03;;;;;;;;;;5021365;28;22616;-87
2024/01/05 04:08:58;;;;;;;9.13;2.40;;;;;;;;;;5025955;28;20544;-87
2024/01/05 04:11:30;;;;;;;2.27;1.30;;;;;;;;;;5007337;28;20472;-86
2024/01/05 04:14:03;;;;;;;5.23;1.43;;;;;;;;;;5021300;28;20521;-89
2024/01/05 04:16:35;;;;;;;7.90;2.80;;;;;;;;;;5002962;28;20541;-86
2024/01/05 04:19:05;;;;;;;4.03;1.80;;;;;;;;;;5024128;28;20622;-87
2024/01/05 04:21:37;;;;;;;2.97;1.60;;;;;;;;;;5022587;28;20461;-86
2024/01/05 04:24:10;;;;;;;6.93;2.13;;;;;;;;;;5015490;28;20449;-86
2024/01/05 04:26:46;;;;;;;6.73;1.80;;;;;;;;;;5027783;28;21318;-86
2024/01/05 04:29:14;;;;;;;4.17;1.53;;;;;;;;;;5035478;28;20811;-88
2024/01/05 04:31:44;;;;;;;5.30;1.90;;;;;;;;;;5029392;28;22611;-88
2024/01/05 04:34:20;;;;;;;2.30;1.67;;;;;;;;;;5033057;28;20499;-87
2024/01/05 04:36:51;;;;;;;2.60;1.47;;;;;;;;;;5015048;28;20478;-87
2024/01/05 04:39:22;;;;;;;9.73;1.70;;;;;;;;;;5011398;28;20485;-87
2024/01/05 04:41:59;;;;;;;8.17;1.77;;;;;;;;;;5025411;28;20500;-87
2024/01/05 04:44:38;;;;;;;4.23;2.00;;;;;;;;;;5031094;28;20499;-87
2024/01/05 04:47:10;;;;;;;4.40;1.50;;;;;;;;;;5028474;28;20492;-87
2024/01/05 04:49:41;;;;;;;4.07;1.80;;;;;;;;;;5029934;28;20460;-85
2024/01/05 04:52:09;;;;;;;5.90;1.40;;;;;;;;;;5026267;28;20482;-85
2024/01/05 04:54:37;;;;;;;3.70;1.97;;;;;;;;;;5020506;28;20448;-89
2024/01/05 04:57:07;;;;;;;2.57;1.67;;;;;;;;;;5029269;28;20844;-85
2024/01/05 04:59:38;;;;;;;2.27;1.80;;;;;;;;;;5017543;28;20470;-86
2024/01/05 05:02:10;;;;;;;4.00;1.47;;;;;;;;;;5007592;28;20546;-86
2024/01/05 05:04:43;;;;;;;5.47;1.40;;;;;;;;;;5023330;28;20492;-88
2024/01/05 05:07:18;;;;;;;5.00;2.37;;;;;;;;;;5035368;28;20540;-85
2024/01/05 05:09:55;;;;;;;9.30;2.07;;;;;;;;;;5025019;28;20457;-87
2024/01/05 05:12:32;;;;;;;3.63;1.73;;;;;;;;;;5025467;28;21837;-85
2024/01/05 05:15:11;;;;;;;3.60;1.30;;;;;;;;;;5026103;28;20526;-85
2024/01/05 05:17:51;;;;;;;3.60;1.70;;;;;;;;;;5021887;28;20478;-86
2024/01/05 05:20:24;;;;;;;2.57;1.43;;;;;;;;;;5029719;28;20477;-86
2024/01/05 05:23:01;;;;;;;5.50;2.27;;;;;;;;;;5017743;28;20548;-84
2024/01/05 05:25:33;;;;;;;3.70;1.60;;;;;;;;;;5023170;28;20457;-86
2024/01/05 05:28:09;;;;;;;5.90;2.00;;;;;;;;;;5024679;28;20469;-86
2024/01/05 05:30:49;;;;;;;2.30;1.40;;;;;;;;;;5019041;28;21865;-85
2024/01/05 05:33:22;;;;;;;2.83;1.33;;;;;;;;;;5030028;28;20572;-85
2024/01/05 05:35:58;;;;;;;1.77;1.03;;;;;;;;;;5026931;28;20458;-86
2024/01/05 05:38:29;;;;;;;3.30;1.80;;;;;;;;;;5030003;28;20516;-86
2024/01/05 05:41:01;;;;;;;7.60;1.90;;;;;;;;;;5024623;28;20455;-87
2024/01/05 05:43:28;;;;;;;5.30;1.90;;;;;;;;;;5018993;28;21562;-86
2024/01/05 05:46:06;;;;;;;3.00;1.37;;;;;;;;;;5030049;28;20446;-84
2024/01/05 05:48:39;;;;;;;7.13;1.97;;;;;;;;;;5035147;28;20520;-85
2024/01/05 05:51:07;;;;;;;3.77;1.33;;;;;;;;;;5035722;28;21581;-85
2024/01/05 05:53:39;;;;;;;5.43;1.80;;;;;;;;;;5030619;28;20967;-85
2024/01/05 05:56:14;;;;;;;2.33;1.40;;;;;;;;;;5034239;28;20475;-85
2024/01/05 05:58:45;;;;;;;2.80;1.30;;;;;;;;;;5029823;28;20597;-87
2024/01/05 06:01:28;;;;;;;3.53;1.13;;;;;;;;;;5029773;28;20933;-88
2024/01/05 06:04:07;;;;;;;1.87;1.10;;;;;;;;;;5031038;28;20461;-87
2024/01/05 06:06:42;;;;;;;6.23;1.30;;;;;;;;;;5025118;28;20485;-86
2024/01/05 06:09:14;;;;;;;2.20;1.20;;;;;;;;;;5035632;28;20475;-84
2024/01/05 06:11:57;;;;;;;1.50;1.10;;;;;;;;;;5025445;28;20511;-88
2024/01/05 06:14:45;;;;;;;2.97;0.90;;;;;;;;;;5032200;28;20494;-86
2024/01/05 06:17:21;;;;;;;3.73;1.33;;;;;;;;;;5116688;23;20468;-86
2024/01/05 06:19:48;;;;;;;3.23;1.30;;;;;;;;;;5139064;22;20592;-86
2024/01/05 06:22:21;;;;;;;1.50;1.17;;;;;;;;;;5050138;28;20461;-86
2024/01/05 06:24:50;;;;;;;3.43;1.20;;;;;;;;;;5079213;28;20441;-85
2024/01/05 06:27:28;;;;;;;5.43;1.37;;;;;;;;;;5065104;28;20481;-86
2024/01/05 06:30:09;;;;;;;7.47;1.60;;;;;;;;;;5058402;28;20455;-86
2024/01/05 06:32:45;;;;;;;6.37;1.47;;;;;;;;;;5059923;28;20503;-87
2024/01/05 06:35:21;;;;;;;1.37;1.27;;;;;;;;;;5049289;28;20544;-86
2024/01/05 06:37:52;;;;;;;2.80;1.30;;;;;;;;;;5050704;28;20485;-88
2024/01/05 06:40:22;;;;;;;3.80;1.30;;;;;;;;;;5053924;28;20945;-87
2024/01/05 06:42:52;;;;;;;3.47;1.33;;;;;;;;;;5048164;28;20491;-85
2024/01/05 06:45:20;;;;;;;1.27;1.00;;;;;;;;;;5038579;28;20449;-86
2024/01/05 06:48:01;;;;;;;3.97;1.40;;;;;;;;;;5045713;28;20574;-86
2024/01/05 06:50:29;;;;;;;1.80;1.00;;;;;;;;;;5045735;28;20480;-86
2024/01/05 06:52:59;;;;;;;2.57;1.30;;;;;;;;;;5040865;28;20824;-86
2024/01/05 06:55:29;;;;;;;4.23;1.30;;;;;;;;;;5044962;28;20469;-87
2024/01/05 06:58:01;;;;;;;1.83;1.03;;;;;;;;;;5042363;28;20484;-85
2024/01/05 07:00:37;;;;;;;3.80;1.40;;;;;;;;;;5034183;28;20472;-85
2024/01/05 07:03:15;;;;;;;3.50;1.37;;;;;;;;;;5044943;28;21013;-87
2024/01/05 07:05:43;;;;;;;2.63;0.93;;;;;;;;;;5045511;28;20503;-87
2024/01/05 07:08:22;;;;;;;1.10;0.90;;;;;;;;;;5043979;28;20779;-87
2024/01/05 07:11:18;;;;;;;2.10;1.07;;;;;;;;;;5052510;28;20474;-87
2024/01/05 07:13:48;;;;;;;1.63;1.40;;;;;;;;;;5049306;28;20487;-86
2024/01/05 07:16:22;;;;;;;3.23;1.33;;;;;;;;;;5041931;28;21962;-88
2024/01/05 07:18:54;;;;;;;2.20;0.97;;;;;;;;;;5059614;28;20479;-87
2024/01/05 07:21:40;;;;;;;2.20;1.30;;;;;;;;;;5049031;28;20796;-87
2024/01/05 07:24:14;;;;;;;2.33;1.07;;;;;;;;;;5044234;28;20567;-85
2024/01/05 07:26:45;;;;;;;2.70;1.03;;;;;;;;;;5058631;28;20464;-85
2024/01/05 07:29:18;;;;;;;1.30;1.10;;;;;;;;;;5047298;28;20424;-88
2024/01/05 07:31:46;;;;;;;3.77;1.03;;;;;;;;;;5044311;28;20523;-86
2024/01/05 07:34:39;;;;;;;3.63;1.23;;;;;;;;;;5042692;28;20468;-85
2024/01/05 07:37:09;;;;;;;6.27;1.40;;;;;;;;;;5057410;28;20488;-86
2024/01/05 07:39:41;;;;;;;1.53;1.43;;;;;;;;;;5055016;28;21057;-86
2024/01/05 07:42:12;;;;;;;2.10;1.43;;;;;;;;;;5044673;28;20457;-87
2024/01/05 07:44:51;;;;;;;6.13;1.37;;;;;;;;;;5041896;28;20436;-86
2024/01/05 07:47:22;;;;;;;3.17;1.40;;;;;;;;;;5045094;28;20992;-88
2024/01/05 07:49:49;;;;;;;2.83;1.57;;;;;;;;;;5060451;28;20442;-87
2024/01/05 07:52:21;;;;;;;4.33;1.30;;;;;;;;;;5047572;28;20437;-86
2024/01/05 07:54:58;;;;;;;4.73;1.67;;;;;;;;;;5041696;28;20540;-86
2024/01/05 07:57:32;;;;;;;3.63;1.30;;;;;;;;;;5042804;28;20556;-86
2024/01/05 08:00:12;;;;;;;3.60;1.63;;;;;;;;;;5046623;28;20671;-86
2024/01/05 08:03:11;;;;;;;3.50;1.70;;;;;;;;;;5048156;28;20499;-88
2024/01/05 08:05:54;;;;;;;1.23;1.03;;;;;;;;;;5065646;28;20444;-86
2024/01/05 08:08:35;;;;;;;2.23;1.30;;;;;;;;;;5039108;28;20499;-85
2024/01/05 08:11:16;;;;;;;2.63;1.33;;;;;;;;;;5049133;28;20525;-86
2024/01/05 08:13:57;;;;;;;2.83;1.10;;;;;;;;;;5039280;28;20457;-86
2024/01/05 08:16:28;;;;;;;2.93;1.50;;;;;;;;;;5046136;28;20492;-84
2024/01/05 08:18:58;;;;;;;4.23;0.87;;;;;;;;;;5046865;28;20461;-86
2024/01/05 08:21:31;;;;;;;1.93;1.00;;;;;;;;;;5047507;28;20536;-85
2024/01/05 08:24:03;;;;;;;3.30;1.23;;;;;;;;;;5050990;28;20468;-85
2024/01/05 08:26:43;;;;;;;4.63;1.33;;;;;;;;;;5054954;28;21776;-87
2024/01/05 08:29:13;;;;;;;1.27;0.87;;;;;;;;;;5061351;28;20482;-86
2024/01/05 08:31:53;;;;;;;2.67;1.03;;;;;;;;;;5062106;28;20482;-87
2024/01/05 08:34:46;;;;;;;1.80;0.80;;;;;;;;;;5072654;28;20493;-87
2024/01/05 08:37:16;;;;;;;1.77;1.67;;;;;;;;;;5060750;28;20472;-83
2024/01/05 08:39:43;;;;;;;2.30;1.53;;;;;;;;;;5055227;28;20485;-84
2024/01/05 08:42:18;;;;;;;1.90;0.70;;;;;;;;;;5045595;28;20437;-84
2024/01/05 08:44:52;;;;;;;1.53;0.80;;;;;;;;;;5050860;28;20464;-83
2024/01/05 08:47:37;;;;;;;3.07;0.77;;;;;;;;;;5076053;28;20506;-87
2024/01/05 08:50:09;;;;;;;0.73;0.70;;;;;;;;;;5077451;28;20523;-85
2024/01/05 08:56:13;;;;;;;1.70;0.97;;;;;;;;;;5052508;28;20452;-88
2024/01/05 08:58:44;;;;;;;0.77;0.50;;;;;;;;;;5052700;28;20442;-86
2024/01/05 09:01:20;;;;;;;0.70;0.50;;;;;;;;;;5065273;28;20573;-86
2024/01/05 09:03:53;;;;;;;0.80;0.50;;;;;;;;;;5049874;28;20482;-86
2024/01/05 09:06:25;;;;;;;1.53;0.80;;;;;;;;;;5048524;28;20471;-90
2024/01/05 09:09:01;;;;;;;1.33;0.77;;;;;;;;;;5066017;28;20464;-85
2024/01/05 09:11:42;;;;;;;0.73;0.53;;;;;;;;;;5064563;28;20456;-85
2024/01/05 09:14:39;;;;;;;0.57;0.57;;;;;;;;;;5056053;28;20457;-86
2024/01/05 09:17:17;;;;;;;0.60;0.60;;;;;;;;;;5042088;28;20481;-85
2024/01/05 09:20:07;;;;;;;0.83;0.40;;;;;;;;;;5048848;28;20483;-87
2024/01/05 09:22:40;;;;;;;1.33;1.07;;;;;;;;;;5046482;28;20457;-86
2024/01/05 09:25:19;;;;;;;0.60;0.60;;;;;;;;;;5051068;28;20446;-84
2024/01/05 09:27:53;;;;;;;1.37;0.40;;;;;;;;;;5055267;28;20501;-86
2024/01/05 09:30:42;;;;;;;1.23;0.40;;;;;;;;;;5047674;28;20461;-86
2024/01/05 09:33:32;;;;;;;;;;;;;;;;;;;;;
2024/01/05 09:36:09;;;;;;;1.80;0.40;;;;;;;;;;5046594;28;20500;-84
2024/01/05 09:38:43;;;;;;;1.87;0.50;;;;;;;;;;5048801;28;20454;-87
2024/01/05 09:41:14;;;;;;;1.43;0.50;;;;;;;;;;5049016;28;20492;-87
2024/01/05 09:44:10;;;;;;;3.10;0.43;;;;;;;;;;5043770;28;20503;-86
2024/01/05 09:46:50;;;;;;;0.70;0.60;;;;;;;;;;5053789;28;20512;-86
2024/01/05 09:49:36;;;;;;;0.50;0.40;;;;;;;;;;5062949;28;20453;-87
2024/01/05 09:52:13;;;;;;;0.50;0.50;;;;;;;;;;5077616;28;20456;-87
2024/01/05 09:54:51;;;;;;;0.40;0.40;;;;;;;;;;5052400;28;21433;-86
2024/01/05 09:57:37;;;;;;;1.07;0.40;;;;;;;;;;5054891;28;20479;-86
2024/01/05 10:18:07;;;;;;;1.53;0.70;;;;;;;;;;5056939;28;20463;-86
2024/01/05 10:31:46;;;;;;;0.40;0.40;;;;;;;;;;4964665;28;20464;-88
2024/01/05 10:34:18;;;;;;;0.40;0.33;;;;;;;;;;4997322;28;20552;-86
2024/01/05 10:42:40;;;;;;;1.17;0.40;;;;;;;;;;5053617;28;20490;-86
2024/01/05 10:45:38;;;;;;;0.40;0.40;;;;;;;;;;5040506;28;21070;-86
2024/01/05 10:48:20;;;;;;;0.50;0.40;;;;;;;;;;5062107;28;20542;-87
2024/01/05 10:51:02;;;;;;;1.67;0.40;;;;;;;;;;5063715;28;20476;-86
2024/01/05 10:53:53;;;;;;;0.60;0.40;;;;;;;;;;5032264;28;20468;-88
2024/01/05 10:56:40;;;;;;;1.80;0.40;;;;;;;;;;5048153;28;20436;-84
2024/01/05 10:59:19;;;;;;;0.40;0.40;;;;;;;;;;5043807;28;20457;-85
2024/01/05 11:01:55;;;;;;;2.83;0.50;;;;;;;;;;5034624;28;20459;-86
2024/01/05 11:04:54;;;;;;;0.40;0.40;;;;;;;;;;5043858;28;21037;-85
2024/01/05 11:16:03;;;;;;;1.00;0.60;;;;;;;;;;771766;22;20762;-87
2024/01/05 11:18:51;;;;;;;1.03;0.60;;;;;;;;;;5057012;28;20454;-85
2024/01/05 11:21:45;;;;;;;1.00;0.80;;;;;;;;;;5051189;28;20483;-86
2024/01/05 11:25:00;;;;;;;;;;;;;;;;;;;;;
2024/01/05 11:27:32;;;;;;;1.20;0.60;;;;;;;;;;5068860;28;20476;-85
2024/01/05 11:30:04;;;;;;;1.60;0.70;;;;;;;;;;5066251;28;21228;-85
2024/01/05 11:32:59;;;;;;;1.13;0.60;;;;;;;;;;5063694;28;20575;-85
2024/01/05 11:35:48;;;;;;;0.50;0.50;;;;;;;;;;5067623;28;20519;-86
2024/01/05 11:38:29;;;;;;;1.00;0.40;;;;;;;;;;5066031;28;20517;-88
2024/01/05 11:41:19;;;;;;;0.70;0.40;;;;;;;;;;5052891;28;20555;-86
2024/01/05 11:43:53;;;;;;;0.50;0.50;;;;;;;;;;5069849;28;20469;-85
2024/01/05 11:46:59;;;;;;;1.30;0.50;;;;;;;;;;5053534;28;20614;-86
2024/01/05 11:49:45;;;;;;;0.60;0.60;;;;;;;;;;5043917;28;20440;-86
2024/01/05 11:53:27;;;;;;;1.90;0.57;;;;;;;;;;5040070;28;20798;-87
2024/01/05 11:56:17;;;;;;;1.47;0.50;;;;;;;;;;5001726;28;20666;-87
2024/01/05 11:58:53;;;;;;;0.50;0.50;;;;;;;;;;5004166;28;20451;-88
2024/01/05 12:02:09;;;;;;;;;;;;;;;;;;;;;
2024/01/05 12:05:08;;;;;;;0.60;0.40;;;;;;;;;;5064551;28;20441;-87
2024/01/05 12:08:18;;;;;;;0.60;0.40;;;;;;;;;;5046898;28;20598;-87
2024/01/05 12:11:11;;;;;;;1.90;0.63;;;;;;;;;;5034336;28;20560;-86
2024/01/05 12:13:49;;;;;;;1.70;0.60;;;;;;;;;;5048568;28;20459;-85
2024/01/05 12:19:49;;;;;;;1.03;0.63;;;;;;;;;;5050948;28;20484;-86
2024/01/05 12:22:25;;;;;;;3.83;0.70;;;;;;;;;;5064418;28;20521;-89
2024/01/05 12:24:55;;;;;;;0.93;0.50;;;;;;;;;;5068570;28;20509;-87
2024/01/05 12:27:50;;;;;;;0.83;0.50;;;;;;;;;;5054057;28;20513;-87
2024/01/05 12:30:35;;;;;;;;;;;;;;;;;;;;;
2024/01/05 12:37:14;;;;;;;0.97;0.60;;;;;;;;;;5067325;28;20459;-88
2024/01/05 12:43:21;;;;;;;;;;;;;;;;;;;;;
2024/01/05 12:49:59;;;;;;;0.93;0.60;;;;;;;;;;5065464;28;20491;-88
2024/01/05 12:53:10;;;;;;;1.07;0.63;;;;;;;;;;5066830;28;20490;-84
2024/01/05 12:55:56;;;;;;;2.40;0.80;;;;;;;;;;5051093;28;21676;-85
2024/01/05 12:58:53;;;;;;;0.87;0.43;;;;;;;;;;4950827;28;20451;-85
2024/01/05 13:01:28;;;;;;;0.57;0.50;;;;;;;;;;5045251;28;20482;-85
2024/01/05 13:04:08;;;;;;;4.23;0.80;;;;;;;;;;5069173;28;20455;-87
2024/01/05 13:06:44;;;;;;;1.27;0.60;;;;;;;;;;5071004;28;20475;-86
2024/01/05 13:09:14;;;;;;;2.13;0.90;;;;;;;;;;5082709;28;20455;-86
2024/01/05 13:12:00;;;;;;;5.43;1.00;;;;;;;;;;5066136;28;20464;-85
2024/01/05 13:18:24;;;;;;;4.80;0.73;;;;;;;;;;5068844;28;21017;-83
2024/01/05 13:21:03;;;;;;;1.40;0.60;;;;;;;;;;5059768;28;20551;-86
2024/01/05 13:23:54;;;;;;;1.10;0.60;;;;;;;;;;5059115;28;20863;-86
2024/01/05 13:27:13;;;;;;;;;;;;;;;;;;;;;
2024/01/05 13:29:56;;;;;;;0.50;0.50;;;;;;;;;;5073587;28;20486;-86
2024/01/05 13:32:24;;;;;;;2.60;0.90;;;;;;;;;;5048469;28;21195;-86
2024/01/05 13:35:16;;;;;;;2.30;0.60;;;;;;;;;;5066355;28;21136;-85
2024/01/05 13:41:17;;;;;;;1.20;0.83;;;;;;;;;;5035254;28;20492;-87
2024/01/05 13:44:01;;;;;;;1.70;0.60;;;;;;;;;;5032267;28;20500;-86
2024/01/05 13:46:38;;;;;;;1.60;0.77;;;;;;;;;;5030568;28;20560;-84
2024/01/05 13:49:17;;;;;;;3.40;0.70;;;;;;;;;;5008711;28;20641;-85
2024/01/05 13:51:49;;;;;;;0.80;0.73;;;;;;;;;;5011758;28;20457;-86
2024/01/05 13:54:19;;;;;;;0.83;0.53;;;;;;;;;;5023342;28;20469;-84
2024/01/05 13:57:03;;;;;;;0.70;0.50;;;;;;;;;;5010049;28;20516;-85
2024/01/05 13:59:45;;;;;;;1.00;0.57;;;;;;;;;;5027424;28;20457;-84
2024/01/05 14:02:33;;;;;;;0.83;0.60;;;;;;;;;;5053317;28;20464;-85
2024/01/05 14:05:01;;;;;;;3.07;1.13;;;;;;;;;;5068201;28;20471;-85
2024/01/05 14:07:28;;;;;;;2.10;0.80;;;;;;;;;;5051240;28;20483;-84
2024/01/05 14:09:57;;;;;;;2.00;0.80;;;;;;;;;;5065678;28;20464;-84
2024/01/05 14:12:34;;;;;;;3.30;0.70;;;;;;;;;;5070049;28;20488;-85
2024/01/05 14:15:09;;;;;;;3.07;0.63;;;;;;;;;;5069490;28;20570;-88
2024/01/05 14:17:37;;;;;;;2.43;0.80;;;;;;;;;;5068934;28;20479;-85
2024/01/05 14:20:21;;;;;;;2.77;0.97;;;;;;;;;;5068725;28;20452;-87
2024/01/05 14:22:54;;;;;;;1.40;0.90;;;;;;;;;;5051417;28;20478;-85
2024/01/05 14:25:23;;;;;;;1.40;0.67;;;;;;;;;;5045771;28;20508;-87
2024/01/05 14:27:50;;;;;;;1.80;0.80;;;;;;;;;;5049135;28;20507;-87
2024/01/05 14:30:17;;;;;;;2.17;1.10;;;;;;;;;;5063487;28;20448;-83
2024/01/05 14:32:44;;;;;;;3.20;1.23;;;;;;;;;;5062127;28;20444;-82
2024/01/05 14:35:11;;;;;;;3.50;0.80;;;;;;;;;;5061325;28;22103;-83
2024/01/05 14:37:40;;;;;;;1.07;0.50;;;;;;;;;;5043230;28;20540;-82
2024/01/05 14:40:11;;;;;;;1.53;1.00;;;;;;;;;;5061637;28;20451;-83
2024/01/05 14:42:38;;;;;;;2.80;0.90;;;;;;;;;;5064479;28;20994;-85
2024/01/05 14:45:05;;;;;;;0.80;0.70;;;;;;;;;;5062124;28;20444;-83
2024/01/05 14:47:32;;;;;;;1.23;0.60;;;;;;;;;;5043427;28;21011;-83
2024/01/05 14:49:59;;;;;;;1.27;0.60;;;;;;;;;;5046133;28;20452;-84
2024/01/05 14:52:27;;;;;;;1.77;1.20;;;;;;;;;;5069002;28;20440;-83
2024/01/05 14:54:56;;;;;;;1.83;0.90;;;;;;;;;;5066276;28;20461;-85
2024/01/05 14:57:23;;;;;;;2.30;0.80;;;;;;;;;;5065329;28;20480;-85
2024/01/05 14:59:55;;;;;;;2.60;0.90;;;;;;;;;;5042933;28;20463;-82
2024/01/05 15:02:22;;;;;;;1.43;0.70;;;;;;;;;;5043692;28;20476;-86
2024/01/05 15:04:49;;;;;;;0.97;0.80;;;;;;;;;;5061167;28;20455;-83
2024/01/05 15:07:16;;;;;;;1.80;0.63;;;;;;;;;;5044061;28;20978;-83
2024/01/05 15:09:43;;;;;;;2.53;1.13;;;;;;;;;;5057015;28;20452;-83
2024/01/05 15:12:13;;;;;;;0.77;0.77;;;;;;;;;;5059270;28;20558;-83
2024/01/05 15:14:40;;;;;;;2.20;0.77;;;;;;;;;;5045584;28;20479;-82
2024/01/05 15:17:07;;;;;;;0.87;0.80;;;;;;;;;;5061292;28;20487;-82
2024/01/05 15:19:37;;;;;;;2.90;0.70;;;;;;;;;;5041426;28;20463;-83
2024/01/05 15:22:04;;;;;;;1.07;0.60;;;;;;;;;;5060984;28;20538;-81
2024/01/05 15:24:33;;;;;;;1.27;0.60;;;;;;;;;;5065351;28;20446;-87
2024/01/05 15:27:02;;;;;;;1.90;0.50;;;;;;;;;;5075029;28;20490;-85
2024/01/05 15:29:31;;;;;;;1.53;0.60;;;;;;;;;;5075046;28;20514;-81
2024/01/05 15:32:14;;;;;;;2.20;0.90;;;;;;;;;;5079394;28;20451;-84
2024/01/05 15:34:54;;;;;;;1.27;0.67;;;;;;;;;;5080233;28;20482;-81
2024/01/05 15:37:22;;;;;;;1.67;0.73;;;;;;;;;;5063797;28;20452;-84
2024/01/05 15:39:49;;;;;;;1.57;0.80;;;;;;;;;;5051035;28;20578;-82
2024/01/05 15:42:20;;;;;;;1.33;0.70;;;;;;;;;;5046716;28;20474;-83
2024/01/05 15:44:47;;;;;;;1.17;0.73;;;;;;;;;;5045032;28;20452;-84
2024/01/05 15:47:19;;;;;;;1.90;0.80;;;;;;;;;;5061751;28;20478;-85
2024/01/05 15:49:47;;;;;;;2.00;0.77;;;;;;;;;;5046461;28;20462;-84
2024/01/05 15:52:16;;;;;;;0.60;0.60;;;;;;;;;;5047585;28;20514;-84
2024/01/05 15:54:44;;;;;;;1.73;0.80;;;;;;;;;;5063067;28;20502;-83
2024/01/05 15:57:15;;;;;;;1.80;0.80;;;;;;;;;;5063025;28;20525;-84
2024/01/05 15:59:43;;;;;;;0.83;0.70;;;;;;;;;;5064977;28;20463;-83
2024/01/05 16:02:10;;;;;;;1.37;1.17;;;;;;;;;;5043500;28;20479;-82
2024/01/05 16:04:37;;;;;;;2.50;1.47;;;;;;;;;;5067099;28;20444;-84
2024/01/05 16:07:06;;;;;;;1.50;0.73;;;;;;;;;;5049096;28;21121;-83
2024/01/05 16:09:34;;;;;;;1.70;1.10;;;;;;;;;;5044685;28;20445;-84
2024/01/05 16:12:04;;;;;;;1.37;0.90;;;;;;;;;;5041618;28;20929;-83
2024/01/05 16:14:32;;;;;;;2.57;1.00;;;;;;;;;;5050189;28;20482;-85
2024/01/05 16:16:59;;;;;;;1.60;1.20;;;;;;;;;;5043419;28;20481;-83
2024/01/05 16:19:27;;;;;;;1.90;0.80;;;;;;;;;;5071013;28;20474;-84
2024/01/05 16:21:54;;;;;;;1.97;1.10;;;;;;;;;;5056149;28;20520;-84
2024/01/05 16:24:23;;;;;;;1.80;1.43;;;;;;;;;;5050377;28;20495;-84
2024/01/05 16:26:50;;;;;;;3.70;1.50;;;;;;;;;;5072041;28;20478;-83
2024/01/05 16:29:18;;;;;;;0.80;0.77;;;;;;;;;;5076454;28;20475;-83
2024/01/05 16:31:47;;;;;;;4.30;1.00;;;;;;;;;;5063608;28;20468;-85
2024/01/05 16:34:14;;;;;;;1.23;0.50;;;;;;;;;;5081487;28;20470;-84
2024/01/05 16:36:42;;;;;;;0.80;0.70;;;;;;;;;;5065003;28;20490;-84
2024/01/05 16:39:09;;;;;;;2.73;0.70;;;;;;;;;;5056396;28;20526;-83
2024/01/05 16:41:36;;;;;;;1.70;0.60;;;;;;;;;;5044656;28;20538;-82
2024/01/05 16:44:04;;;;;;;3.37;1.30;;;;;;;;;;5063106;28;20447;-82
2024/01/05 16:46:32;;;;;;;2.70;1.17;;;;;;;;;;5059734;28;20487;-84
2024/01/05 16:49:01;;;;;;;1.47;1.00;;;;;;;;;;5049197;28;20452;-84
2024/01/05 16:51:29;;;;;;;2.13;1.20;;;;;;;;;;5064371;28;20460;-84
2024/01/05 16:53:58;;;;;;;4.87;1.20;;;;;;;;;;5070373;28;20456;-83
2024/01/05 16:56:27;;;;;;;2.60;1.40;;;;;;;;;;5070516;28;20574;-80
2024/01/05 16:58:55;;;;;;;2.40;1.67;;;;;;;;;;5049621;28;20453;-84
2024/01/05 17:01:24;;;;;;;1.47;0.90;;;;;;;;;;5072929;28;20491;-82
2024/01/05 17:03:53;;;;;;;1.87;1.07;;;;;;;;;;5049703;28;20567;-83
2024/01/05 17:06:21;;;;;;;2.20;1.70;;;;;;;;;;5066607;28;20494;-84
2024/01/05 17:08:49;;;;;;;4.70;1.20;;;;;;;;;;5071766;28;20826;-84